sensor_id;sensor_type;location;lat;lon;timestamp;temperature;humidity
12060;DHT22;6091;51.432;6.880;2022-07-29T00:02:27;29.50;31.20
12060;DHT22;6091;51.432;6.880;2022-07-29T00:04:54;29.50;31.20
12060;DHT22;6091;51.432;6.880;2022-07-29T00:07:21;29.50;31.20
12060;DHT22;6091;51.432;6.880;2022-07-29T00:09:48;29.50;31.30
12060;DHT22;6091;51.432;6.880;2022-07-29T00:12:19;29.50;31.30
12060;DHT22;6091;51.432;6.880;2022-07-29T00:14:56;29.50;31.20
12060;DHT22;6091;51.432;6.880;2022-07-29T00:17:24;29.50;31.40
12060;DHT22;6091;51.432;6.880;2022-07-29T00:19:52;29.50;31.30
12060;DHT22;6091;51.432;6.880;2022-07-29T00:22:19;29.50;31.40
12060;DHT22;6091;51.432;6.880;2022-07-29T00:24:48;29.50;31.40
12060;DHT22;6091;51.432;6.880;2022-07-29T00:27:16;29.40;31.40
12060;DHT22;6091;51.432;6.880;2022-07-29T00:29:44;29.40;31.40
12060;DHT22;6091;51.432;6.880;2022-07-29T00:32:11;29.50;31.40
12060;DHT22;6091;51.432;6.880;2022-07-29T00:34:38;29.40;31.30
12060;DHT22;6091;51.432;6.880;2022-07-29T00:37:24;29.40;31.40
12060;DHT22;6091;51.432;6.880;2022-07-29T00:39:51;29.50;31.40
12060;DHT22;6091;51.432;6.880;2022-07-29T00:42:18;29.50;31.30
12060;DHT22;6091;51.432;6.880;2022-07-29T00:44:45;29.50;31.50
12060;DHT22;6091;51.432;6.880;2022-07-29T00:47:12;29.40;31.40
12060;DHT22;6091;51.432;6.880;2022-07-29T00:49:40;29.40;31.40
12060;DHT22;6091;51.432;6.880;2022-07-29T00:52:10;29.40;31.40
12060;DHT22;6091;51.432;6.880;2022-07-29T00:54:39;29.40;31.40
12060;DHT22;6091;51.432;6.880;2022-07-29T00:57:10;29.40;31.50
12060;DHT22;6091;51.432;6.880;2022-07-29T00:59:39;29.40;31.50
12060;DHT22;6091;51.432;6.880;2022-07-29T01:02:08;29.50;31.50
12060;DHT22;6091;51.432;6.880;2022-07-29T01:04:35;29.40;31.50
12060;DHT22;6091;51.432;6.880;2022-07-29T01:07:03;29.40;31.50
12060;DHT22;6091;51.432;6.880;2022-07-29T01:09:34;29.40;31.60
12060;DHT22;6091;51.432;6.880;2022-07-29T01:12:18;29.40;31.60
12060;DHT22;6091;51.432;6.880;2022-07-29T01:14:50;29.40;31.60
12060;DHT22;6091;51.432;6.880;2022-07-29T01:17:26;29.40;31.50
12060;DHT22;6091;51.432;6.880;2022-07-29T01:20:14;29.40;31.50
12060;DHT22;6091;51.432;6.880;2022-07-29T01:23:30;29.40;31.70
12060;DHT22;6091;51.432;6.880;2022-07-29T01:32:10;29.40;31.50
12060;DHT22;6091;51.432;6.880;2022-07-29T01:35:09;29.40;31.60
12060;DHT22;6091;51.432;6.880;2022-07-29T01:40:24;29.40;31.60
12060;DHT22;6091;51.432;6.880;2022-07-29T01:42:57;29.40;31.70
12060;DHT22;6091;51.432;6.880;2022-07-29T01:45:41;29.30;31.50
12060;DHT22;6091;51.432;6.880;2022-07-29T01:48:22;29.40;31.70
12060;DHT22;6091;51.432;6.880;2022-07-29T01:51:14;29.30;31.60
12060;DHT22;6091;51.432;6.880;2022-07-29T01:54:10;29.30;31.70
12060;DHT22;6091;51.432;6.880;2022-07-29T01:56:40;29.30;31.60
12060;DHT22;6091;51.432;6.880;2022-07-29T01:59:10;29.30;31.50
12060;DHT22;6091;51.432;6.880;2022-07-29T02:01:39;29.30;31.60
12060;DHT22;6091;51.432;6.880;2022-07-29T02:04:11;29.30;31.60
12060;DHT22;6091;51.432;6.880;2022-07-29T02:06:58;29.30;31.70
12060;DHT22;6091;51.432;6.880;2022-07-29T02:09:30;29.30;31.80
12060;DHT22;6091;51.432;6.880;2022-07-29T02:12:00;29.30;31.70
12060;DHT22;6091;51.432;6.880;2022-07-29T02:14:42;29.30;31.70
12060;DHT22;6091;51.432;6.880;2022-07-29T02:17:17;29.30;31.80
12060;DHT22;6091;51.432;6.880;2022-07-29T02:19:51;29.20;31.80
12060;DHT22;6091;51.432;6.880;2022-07-29T02:22:22;29.20;31.70
12060;DHT22;6091;51.432;6.880;2022-07-29T02:24:51;29.20;31.80
12060;DHT22;6091;51.432;6.880;2022-07-29T02:27:20;29.30;31.90
12060;DHT22;6091;51.432;6.880;2022-07-29T02:29:51;29.20;31.90
12060;DHT22;6091;51.432;6.880;2022-07-29T02:32:21;29.20;31.90
12060;DHT22;6091;51.432;6.880;2022-07-29T02:34:51;29.30;31.90
12060;DHT22;6091;51.432;6.880;2022-07-29T02:37:19;29.20;31.80
12060;DHT22;6091;51.432;6.880;2022-07-29T02:39:48;29.20;31.80
12060;DHT22;6091;51.432;6.880;2022-07-29T02:42:18;29.20;31.90
12060;DHT22;6091;51.432;6.880;2022-07-29T02:44:49;29.30;31.90
12060;DHT22;6091;51.432;6.880;2022-07-29T02:50:34;29.20;31.80
12060;DHT22;6091;51.432;6.880;2022-07-29T02:53:15;29.20;31.70
12060;DHT22;6091;51.432;6.880;2022-07-29T02:58:45;29.20;31.70
12060;DHT22;6091;51.432;6.880;2022-07-29T03:01:25;29.20;31.80
12060;DHT22;6091;51.432;6.880;2022-07-29T03:03:57;29.10;31.80
12060;DHT22;6091;51.432;6.880;2022-07-29T03:06:28;29.10;31.70
12060;DHT22;6091;51.432;6.880;2022-07-29T03:09:06;29.10;31.70
12060;DHT22;6091;51.432;6.880;2022-07-29T03:11:40;29.10;31.80
12060;DHT22;6091;51.432;6.880;2022-07-29T03:14:17;29.10;31.80
12060;DHT22;6091;51.432;6.880;2022-07-29T03:16:47;29.10;31.90
12060;DHT22;6091;51.432;6.880;2022-07-29T03:19:15;29.00;31.80
12060;DHT22;6091;51.432;6.880;2022-07-29T03:21:43;29.00;31.80
12060;DHT22;6091;51.432;6.880;2022-07-29T03:24:10;29.00;31.90
12060;DHT22;6091;51.432;6.880;2022-07-29T03:26:37;29.00;31.90
12060;DHT22;6091;51.432;6.880;2022-07-29T03:29:04;29.00;32.00
12060;DHT22;6091;51.432;6.880;2022-07-29T03:31:31;29.00;31.90
12060;DHT22;6091;51.432;6.880;2022-07-29T03:33:59;29.00;31.90
12060;DHT22;6091;51.432;6.880;2022-07-29T03:36:26;28.90;31.80
12060;DHT22;6091;51.432;6.880;2022-07-29T03:38:53;28.90;31.90
12060;DHT22;6091;51.432;6.880;2022-07-29T03:41:22;28.90;31.90
12060;DHT22;6091;51.432;6.880;2022-07-29T03:43:51;29.00;32.00
12060;DHT22;6091;51.432;6.880;2022-07-29T03:46:22;28.90;32.00
12060;DHT22;6091;51.432;6.880;2022-07-29T03:48:56;28.90;32.00
12060;DHT22;6091;51.432;6.880;2022-07-29T03:51:26;28.90;32.00
12060;DHT22;6091;51.432;6.880;2022-07-29T03:54:01;28.90;32.00
12060;DHT22;6091;51.432;6.880;2022-07-29T03:56:39;28.90;32.10
12060;DHT22;6091;51.432;6.880;2022-07-29T03:59:09;28.90;32.00
12060;DHT22;6091;51.432;6.880;2022-07-29T04:01:38;28.90;32.10
12060;DHT22;6091;51.432;6.880;2022-07-29T04:04:07;28.90;32.10
12060;DHT22;6091;51.432;6.880;2022-07-29T04:06:44;28.90;32.10
12060;DHT22;6091;51.432;6.880;2022-07-29T04:09:14;28.90;32.20
12060;DHT22;6091;51.432;6.880;2022-07-29T04:11:41;28.90;32.20
12060;DHT22;6091;51.432;6.880;2022-07-29T04:14:29;28.80;32.20
12060;DHT22;6091;51.432;6.880;2022-07-29T04:16:57;28.80;32.20
12060;DHT22;6091;51.432;6.880;2022-07-29T04:19:25;28.80;32.20
12060;DHT22;6091;51.432;6.880;2022-07-29T04:21:52;28.80;32.20
12060;DHT22;6091;51.432;6.880;2022-07-29T04:24:19;28.80;32.20
12060;DHT22;6091;51.432;6.880;2022-07-29T04:26:47;28.80;32.30
12060;DHT22;6091;51.432;6.880;2022-07-29T04:29:14;28.80;32.30
12060;DHT22;6091;51.432;6.880;2022-07-29T04:31:42;28.70;32.30
12060;DHT22;6091;51.432;6.880;2022-07-29T04:34:11;28.70;32.30
12060;DHT22;6091;51.432;6.880;2022-07-29T04:36:39;28.70;32.40
12060;DHT22;6091;51.432;6.880;2022-07-29T04:39:06;28.70;32.40
12060;DHT22;6091;51.432;6.880;2022-07-29T04:41:33;28.80;32.50
12060;DHT22;6091;51.432;6.880;2022-07-29T04:44:00;28.70;32.40
12060;DHT22;6091;51.432;6.880;2022-07-29T04:46:33;28.70;32.50
12060;DHT22;6091;51.432;6.880;2022-07-29T04:49:01;28.80;32.50
12060;DHT22;6091;51.432;6.880;2022-07-29T04:51:28;28.80;32.50
12060;DHT22;6091;51.432;6.880;2022-07-29T04:53:55;28.80;32.60
12060;DHT22;6091;51.432;6.880;2022-07-29T04:56:22;28.80;32.60
12060;DHT22;6091;51.432;6.880;2022-07-29T04:58:49;28.80;32.60
12060;DHT22;6091;51.432;6.880;2022-07-29T05:01:17;28.80;32.60
12060;DHT22;6091;51.432;6.880;2022-07-29T05:03:44;28.80;32.60
12060;DHT22;6091;51.432;6.880;2022-07-29T05:06:11;28.80;32.60
12060;DHT22;6091;51.432;6.880;2022-07-29T05:08:38;28.80;32.60
12060;DHT22;6091;51.432;6.880;2022-07-29T05:11:07;28.80;32.60
12060;DHT22;6091;51.432;6.880;2022-07-29T05:13:38;28.80;32.60
12060;DHT22;6091;51.432;6.880;2022-07-29T05:16:13;28.80;32.70
12060;DHT22;6091;51.432;6.880;2022-07-29T05:18:41;28.90;32.70
12060;DHT22;6091;51.432;6.880;2022-07-29T05:21:08;28.90;32.70
12060;DHT22;6091;51.432;6.880;2022-07-29T05:23:35;28.90;32.70
12060;DHT22;6091;51.432;6.880;2022-07-29T05:26:02;28.80;32.60
12060;DHT22;6091;51.432;6.880;2022-07-29T05:28:33;28.90;32.70
12060;DHT22;6091;51.432;6.880;2022-07-29T05:31:01;28.90;32.80
12060;DHT22;6091;51.432;6.880;2022-07-29T05:33:29;28.90;32.70
12060;DHT22;6091;51.432;6.880;2022-07-29T05:36:03;28.90;32.80
12060;DHT22;6091;51.432;6.880;2022-07-29T05:38:34;28.80;32.70
12060;DHT22;6091;51.432;6.880;2022-07-29T05:41:02;28.80;32.70
12060;DHT22;6091;51.432;6.880;2022-07-29T05:43:33;28.90;33.50
12060;DHT22;6091;51.432;6.880;2022-07-29T05:46:00;28.80;32.80
12060;DHT22;6091;51.432;6.880;2022-07-29T05:48:27;28.90;32.90
12060;DHT22;6091;51.432;6.880;2022-07-29T05:50:54;28.80;32.80
12060;DHT22;6091;51.432;6.880;2022-07-29T05:53:21;28.80;32.80
12060;DHT22;6091;51.432;6.880;2022-07-29T05:55:49;28.90;32.90
12060;DHT22;6091;51.432;6.880;2022-07-29T05:58:16;28.80;32.90
12060;DHT22;6091;51.432;6.880;2022-07-29T06:00:44;28.80;33.20
12060;DHT22;6091;51.432;6.880;2022-07-29T06:03:11;28.80;33.30
12060;DHT22;6091;51.432;6.880;2022-07-29T06:05:38;28.80;33.90
12060;DHT22;6091;51.432;6.880;2022-07-29T06:08:05;28.80;33.50
12060;DHT22;6091;51.432;6.880;2022-07-29T06:10:37;28.70;33.60
12060;DHT22;6091;51.432;6.880;2022-07-29T06:13:04;28.70;33.70
12060;DHT22;6091;51.432;6.880;2022-07-29T06:15:31;28.70;33.70
12060;DHT22;6091;51.432;6.880;2022-07-29T06:18:00;28.60;34.20
12060;DHT22;6091;51.432;6.880;2022-07-29T06:20:29;28.60;34.20
12060;DHT22;6091;51.432;6.880;2022-07-29T06:22:58;28.60;34.20
12060;DHT22;6091;51.432;6.880;2022-07-29T06:25:26;28.50;34.40
12060;DHT22;6091;51.432;6.880;2022-07-29T06:27:56;28.50;34.40
12060;DHT22;6091;51.432;6.880;2022-07-29T06:30:23;28.50;34.30
12060;DHT22;6091;51.432;6.880;2022-07-29T06:32:50;28.40;34.30
12060;DHT22;6091;51.432;6.880;2022-07-29T06:35:18;28.40;34.40
12060;DHT22;6091;51.432;6.880;2022-07-29T06:38:05;28.40;34.50
12060;DHT22;6091;51.432;6.880;2022-07-29T06:40:52;28.40;34.50
12060;DHT22;6091;51.432;6.880;2022-07-29T06:43:48;28.40;34.70
12060;DHT22;6091;51.432;6.880;2022-07-29T06:46:21;28.50;34.60
12060;DHT22;6091;51.432;6.880;2022-07-29T06:48:49;28.50;34.70
12060;DHT22;6091;51.432;6.880;2022-07-29T06:51:17;28.50;34.70
12060;DHT22;6091;51.432;6.880;2022-07-29T06:53:48;28.60;34.80
12060;DHT22;6091;51.432;6.880;2022-07-29T06:56:28;28.60;34.80
12060;DHT22;6091;51.432;6.880;2022-07-29T06:59:06;28.60;34.80
12060;DHT22;6091;51.432;6.880;2022-07-29T07:01:40;28.60;34.90
12060;DHT22;6091;51.432;6.880;2022-07-29T07:04:10;28.70;35.50
12060;DHT22;6091;51.432;6.880;2022-07-29T07:06:37;28.60;35.20
12060;DHT22;6091;51.432;6.880;2022-07-29T07:09:05;28.70;35.40
12060;DHT22;6091;51.432;6.880;2022-07-29T07:11:32;28.60;35.60
12060;DHT22;6091;51.432;6.880;2022-07-29T07:13:59;28.60;35.40
12060;DHT22;6091;51.432;6.880;2022-07-29T07:16:39;28.60;35.50
12060;DHT22;6091;51.432;6.880;2022-07-29T07:19:07;28.60;35.50
12060;DHT22;6091;51.432;6.880;2022-07-29T07:21:34;28.50;35.50
12060;DHT22;6091;51.432;6.880;2022-07-29T07:24:01;28.50;35.60
12060;DHT22;6091;51.432;6.880;2022-07-29T07:26:29;28.40;35.60
12060;DHT22;6091;51.432;6.880;2022-07-29T07:28:56;28.40;35.60
12060;DHT22;6091;51.432;6.880;2022-07-29T07:31:23;28.40;35.70
12060;DHT22;6091;51.432;6.880;2022-07-29T07:33:50;28.40;36.00
12060;DHT22;6091;51.432;6.880;2022-07-29T07:36:18;28.40;36.20
12060;DHT22;6091;51.432;6.880;2022-07-29T07:38:45;28.40;36.20
12060;DHT22;6091;51.432;6.880;2022-07-29T07:41:12;28.30;36.10
12060;DHT22;6091;51.432;6.880;2022-07-29T07:43:40;28.30;36.10
12060;DHT22;6091;51.432;6.880;2022-07-29T07:46:07;28.30;36.20
12060;DHT22;6091;51.432;6.880;2022-07-29T07:48:34;28.30;36.40
12060;DHT22;6091;51.432;6.880;2022-07-29T07:51:02;28.30;36.60
12060;DHT22;6091;51.432;6.880;2022-07-29T07:53:30;28.30;36.60
12060;DHT22;6091;51.432;6.880;2022-07-29T07:55:58;28.30;36.50
12060;DHT22;6091;51.432;6.880;2022-07-29T07:58:41;28.30;36.40
12060;DHT22;6091;51.432;6.880;2022-07-29T08:01:08;28.30;36.60
12060;DHT22;6091;51.432;6.880;2022-07-29T08:03:36;28.30;36.60
12060;DHT22;6091;51.432;6.880;2022-07-29T08:06:04;28.30;36.70
12060;DHT22;6091;51.432;6.880;2022-07-29T08:08:32;28.30;36.70
12060;DHT22;6091;51.432;6.880;2022-07-29T08:10:59;28.30;36.80
12060;DHT22;6091;51.432;6.880;2022-07-29T08:13:34;28.30;36.70
12060;DHT22;6091;51.432;6.880;2022-07-29T08:16:01;28.30;36.60
12060;DHT22;6091;51.432;6.880;2022-07-29T08:18:37;28.30;36.60
12060;DHT22;6091;51.432;6.880;2022-07-29T08:21:06;28.30;37.00
12060;DHT22;6091;51.432;6.880;2022-07-29T08:23:33;28.30;37.10
12060;DHT22;6091;51.432;6.880;2022-07-29T08:26:17;28.30;37.20
12060;DHT22;6091;51.432;6.880;2022-07-29T08:28:45;28.30;37.20
12060;DHT22;6091;51.432;6.880;2022-07-29T08:31:16;28.30;37.20
12060;DHT22;6091;51.432;6.880;2022-07-29T08:33:43;28.30;37.10
12060;DHT22;6091;51.432;6.880;2022-07-29T08:36:10;28.40;37.20
12060;DHT22;6091;51.432;6.880;2022-07-29T08:38:39;28.30;37.00
12060;DHT22;6091;51.432;6.880;2022-07-29T08:41:06;28.40;37.20
12060;DHT22;6091;51.432;6.880;2022-07-29T08:43:33;28.40;37.40
12060;DHT22;6091;51.432;6.880;2022-07-29T08:46:04;28.40;37.30
12060;DHT22;6091;51.432;6.880;2022-07-29T08:48:32;28.40;37.30
12060;DHT22;6091;51.432;6.880;2022-07-29T08:51:00;28.40;37.30
12060;DHT22;6091;51.432;6.880;2022-07-29T08:53:30;28.40;37.30
12060;DHT22;6091;51.432;6.880;2022-07-29T08:55:58;28.40;37.20
12060;DHT22;6091;51.432;6.880;2022-07-29T08:58:27;28.50;37.30
12060;DHT22;6091;51.432;6.880;2022-07-29T09:01:03;28.50;37.30
12060;DHT22;6091;51.432;6.880;2022-07-29T09:03:39;28.60;37.30
12060;DHT22;6091;51.432;6.880;2022-07-29T09:06:08;28.50;37.30
12060;DHT22;6091;51.432;6.880;2022-07-29T09:08:35;28.60;37.30
12060;DHT22;6091;51.432;6.880;2022-07-29T09:11:02;28.70;37.30
12060;DHT22;6091;51.432;6.880;2022-07-29T09:13:31;28.70;37.30
12060;DHT22;6091;51.432;6.880;2022-07-29T09:15:58;28.70;37.30
12060;DHT22;6091;51.432;6.880;2022-07-29T09:18:39;28.70;37.40
12060;DHT22;6091;51.432;6.880;2022-07-29T09:21:10;28.70;37.40
12060;DHT22;6091;51.432;6.880;2022-07-29T09:24:09;28.70;37.50
12060;DHT22;6091;51.432;6.880;2022-07-29T09:26:48;28.80;37.50
12060;DHT22;6091;51.432;6.880;2022-07-29T09:29:23;28.80;37.50
12060;DHT22;6091;51.432;6.880;2022-07-29T09:31:53;28.80;37.60
12060;DHT22;6091;51.432;6.880;2022-07-29T09:34:26;28.80;37.40
12060;DHT22;6091;51.432;6.880;2022-07-29T09:36:59;28.80;37.50
12060;DHT22;6091;51.432;6.880;2022-07-29T09:41:58;28.90;37.90
12060;DHT22;6091;51.432;6.880;2022-07-29T09:44:43;28.80;38.00
12060;DHT22;6091;51.432;6.880;2022-07-29T09:47:12;28.80;38.00
12060;DHT22;6091;51.432;6.880;2022-07-29T09:49:59;28.80;37.80
12060;DHT22;6091;51.432;6.880;2022-07-29T09:52:28;28.70;37.90
12060;DHT22;6091;51.432;6.880;2022-07-29T09:55:09;28.70;37.70
12060;DHT22;6091;51.432;6.880;2022-07-29T09:57:44;28.70;38.10
12060;DHT22;6091;51.432;6.880;2022-07-29T10:00:16;28.60;37.80
12060;DHT22;6091;51.432;6.880;2022-07-29T10:02:46;28.60;37.80
12060;DHT22;6091;51.432;6.880;2022-07-29T10:05:23;28.70;37.90
12060;DHT22;6091;51.432;6.880;2022-07-29T10:07:56;28.70;38.10
12060;DHT22;6091;51.432;6.880;2022-07-29T10:10:29;28.70;38.00
12060;DHT22;6091;51.432;6.880;2022-07-29T10:13:12;28.70;37.90
12060;DHT22;6091;51.432;6.880;2022-07-29T10:15:44;28.70;37.80
12060;DHT22;6091;51.432;6.880;2022-07-29T10:18:14;28.70;37.80
12060;DHT22;6091;51.432;6.880;2022-07-29T10:20:44;28.70;37.80
12060;DHT22;6091;51.432;6.880;2022-07-29T10:23:11;28.70;37.80
12060;DHT22;6091;51.432;6.880;2022-07-29T10:25:39;28.80;37.80
12060;DHT22;6091;51.432;6.880;2022-07-29T10:28:12;28.70;37.80
12060;DHT22;6091;51.432;6.880;2022-07-29T10:30:43;28.80;37.90
12060;DHT22;6091;51.432;6.880;2022-07-29T10:33:21;28.80;38.10
12060;DHT22;6091;51.432;6.880;2022-07-29T10:44:42;29.00;37.90
12060;DHT22;6091;51.432;6.880;2022-07-29T10:47:24;28.90;37.90
12060;DHT22;6091;51.432;6.880;2022-07-29T10:50:00;29.00;38.10
12060;DHT22;6091;51.432;6.880;2022-07-29T10:55:34;29.10;37.90
12060;DHT22;6091;51.432;6.880;2022-07-29T11:00:51;29.20;37.90
12060;DHT22;6091;51.432;6.880;2022-07-29T11:03:46;29.20;37.90
12060;DHT22;6091;51.432;6.880;2022-07-29T11:09:32;29.30;37.70
12060;DHT22;6091;51.432;6.880;2022-07-29T11:15:15;29.40;38.00
12060;DHT22;6091;51.432;6.880;2022-07-29T11:20:44;29.50;37.90
12060;DHT22;6091;51.432;6.880;2022-07-29T11:23:29;29.60;37.90
12060;DHT22;6091;51.432;6.880;2022-07-29T11:31:37;29.90;37.70
12060;DHT22;6091;51.432;6.880;2022-07-29T11:34:31;30.00;37.60
12060;DHT22;6091;51.432;6.880;2022-07-29T11:39:38;30.10;37.30
12060;DHT22;6091;51.432;6.880;2022-07-29T11:45:22;30.20;37.30
12060;DHT22;6091;51.432;6.880;2022-07-29T11:48:16;30.30;37.20
12060;DHT22;6091;51.432;6.880;2022-07-29T11:50:58;30.30;37.10
12060;DHT22;6091;51.432;6.880;2022-07-29T11:53:26;30.30;37.00
12060;DHT22;6091;51.432;6.880;2022-07-29T11:55:58;30.30;36.90
12060;DHT22;6091;51.432;6.880;2022-07-29T11:58:28;30.30;36.80
12060;DHT22;6091;51.432;6.880;2022-07-29T12:00:57;30.30;36.70
12060;DHT22;6091;51.432;6.880;2022-07-29T12:03:30;30.20;36.60
12060;DHT22;6091;51.432;6.880;2022-07-29T12:06:10;30.30;36.60
12060;DHT22;6091;51.432;6.880;2022-07-29T12:08:43;30.20;36.60
12060;DHT22;6091;51.432;6.880;2022-07-29T12:11:18;30.20;36.50
12060;DHT22;6091;51.432;6.880;2022-07-29T12:13:52;30.20;36.30
12060;DHT22;6091;51.432;6.880;2022-07-29T12:16:20;30.20;36.50
12060;DHT22;6091;51.432;6.880;2022-07-29T12:19:04;30.10;36.40
12060;DHT22;6091;51.432;6.880;2022-07-29T12:21:48;30.10;36.20
12060;DHT22;6091;51.432;6.880;2022-07-29T12:24:22;30.10;36.30
12060;DHT22;6091;51.432;6.880;2022-07-29T12:26:58;30.10;36.50
12060;DHT22;6091;51.432;6.880;2022-07-29T12:29:26;30.10;36.40
12060;DHT22;6091;51.432;6.880;2022-07-29T12:32:02;30.10;36.40
12060;DHT22;6091;51.432;6.880;2022-07-29T12:34:31;29.80;36.20
12060;DHT22;6091;51.432;6.880;2022-07-29T12:36:59;30.10;36.40
12060;DHT22;6091;51.432;6.880;2022-07-29T12:39:27;30.10;36.40
12060;DHT22;6091;51.432;6.880;2022-07-29T12:41:55;30.10;36.30
12060;DHT22;6091;51.432;6.880;2022-07-29T12:44:49;30.10;36.30
12060;DHT22;6091;51.432;6.880;2022-07-29T12:47:19;30.10;36.20
12060;DHT22;6091;51.432;6.880;2022-07-29T12:49:47;30.00;36.10
12060;DHT22;6091;51.432;6.880;2022-07-29T12:52:33;30.10;36.20
12060;DHT22;6091;51.432;6.880;2022-07-29T12:55:01;30.10;36.10
12060;DHT22;6091;51.432;6.880;2022-07-29T12:57:29;30.10;36.20
12060;DHT22;6091;51.432;6.880;2022-07-29T13:00:09;30.00;36.20
12060;DHT22;6091;51.432;6.880;2022-07-29T13:02:40;30.10;36.20
12060;DHT22;6091;51.432;6.880;2022-07-29T13:05:10;30.10;36.30
12060;DHT22;6091;51.432;6.880;2022-07-29T13:07:39;30.10;36.30
12060;DHT22;6091;51.432;6.880;2022-07-29T13:10:22;30.10;36.40
12060;DHT22;6091;51.432;6.880;2022-07-29T13:13:12;30.10;36.40
12060;DHT22;6091;51.432;6.880;2022-07-29T13:15:43;30.20;36.30
12060;DHT22;6091;51.432;6.880;2022-07-29T13:18:31;30.20;36.50
12060;DHT22;6091;51.432;6.880;2022-07-29T13:21:13;30.30;36.40
12060;DHT22;6091;51.432;6.880;2022-07-29T13:23:44;30.40;36.40
12060;DHT22;6091;51.432;6.880;2022-07-29T13:26:11;30.50;36.60
12060;DHT22;6091;51.432;6.880;2022-07-29T13:28:39;30.50;36.50
12060;DHT22;6091;51.432;6.880;2022-07-29T13:31:10;30.60;36.50
12060;DHT22;6091;51.432;6.880;2022-07-29T13:33:37;30.70;36.40
12060;DHT22;6091;51.432;6.880;2022-07-29T13:36:04;30.80;36.30
12060;DHT22;6091;51.432;6.880;2022-07-29T13:38:31;30.80;36.30
12060;DHT22;6091;51.432;6.880;2022-07-29T13:40:58;30.90;36.20
12060;DHT22;6091;51.432;6.880;2022-07-29T13:43:25;30.80;36.00
12060;DHT22;6091;51.432;6.880;2022-07-29T13:45:52;31.00;36.00
12060;DHT22;6091;51.432;6.880;2022-07-29T13:48:19;31.00;36.00
12060;DHT22;6091;51.432;6.880;2022-07-29T13:50:47;31.00;35.90
12060;DHT22;6091;51.432;6.880;2022-07-29T13:53:14;31.00;35.80
12060;DHT22;6091;51.432;6.880;2022-07-29T13:55:43;31.10;35.80
12060;DHT22;6091;51.432;6.880;2022-07-29T13:58:10;31.10;35.70
12060;DHT22;6091;51.432;6.880;2022-07-29T14:00:37;31.10;35.70
12060;DHT22;6091;51.432;6.880;2022-07-29T14:03:05;31.10;35.70
12060;DHT22;6091;51.432;6.880;2022-07-29T14:05:33;31.10;35.60
12060;DHT22;6091;51.432;6.880;2022-07-29T14:07:59;31.00;35.50
12060;DHT22;6091;51.432;6.880;2022-07-29T14:10:27;31.00;35.50
12060;DHT22;6091;51.432;6.880;2022-07-29T14:12:54;31.00;35.50
12060;DHT22;6091;51.432;6.880;2022-07-29T14:15:21;31.00;35.50
12060;DHT22;6091;51.432;6.880;2022-07-29T14:17:48;30.90;35.40
12060;DHT22;6091;51.432;6.880;2022-07-29T14:20:15;30.90;35.50
12060;DHT22;6091;51.432;6.880;2022-07-29T14:22:42;30.90;35.40
12060;DHT22;6091;51.432;6.880;2022-07-29T14:25:11;30.90;35.50
12060;DHT22;6091;51.432;6.880;2022-07-29T14:27:41;30.90;35.50
12060;DHT22;6091;51.432;6.880;2022-07-29T14:30:12;30.80;35.40
12060;DHT22;6091;51.432;6.880;2022-07-29T14:32:39;30.80;35.40
12060;DHT22;6091;51.432;6.880;2022-07-29T14:35:07;30.70;35.40
12060;DHT22;6091;51.432;6.880;2022-07-29T14:37:34;30.80;35.40
12060;DHT22;6091;51.432;6.880;2022-07-29T14:40:07;30.80;35.40
12060;DHT22;6091;51.432;6.880;2022-07-29T14:42:35;30.70;35.40
12060;DHT22;6091;51.432;6.880;2022-07-29T14:45:05;30.70;35.40
12060;DHT22;6091;51.432;6.880;2022-07-29T14:47:33;30.60;35.30
12060;DHT22;6091;51.432;6.880;2022-07-29T14:50:00;30.60;35.30
12060;DHT22;6091;51.432;6.880;2022-07-29T14:52:28;30.60;35.30
12060;DHT22;6091;51.432;6.880;2022-07-29T14:54:55;30.60;35.30
12060;DHT22;6091;51.432;6.880;2022-07-29T14:57:22;30.60;35.30
12060;DHT22;6091;51.432;6.880;2022-07-29T14:59:49;30.50;35.30
12060;DHT22;6091;51.432;6.880;2022-07-29T15:02:17;30.50;35.30
12060;DHT22;6091;51.432;6.880;2022-07-29T15:04:44;30.50;35.30
12060;DHT22;6091;51.432;6.880;2022-07-29T15:07:12;30.50;35.30
12060;DHT22;6091;51.432;6.880;2022-07-29T15:09:40;30.50;35.30
12060;DHT22;6091;51.432;6.880;2022-07-29T15:12:15;30.50;35.30
12060;DHT22;6091;51.432;6.880;2022-07-29T15:14:42;30.50;35.30
12060;DHT22;6091;51.432;6.880;2022-07-29T15:17:09;30.50;35.30
12060;DHT22;6091;51.432;6.880;2022-07-29T15:19:36;30.50;35.20
12060;DHT22;6091;51.432;6.880;2022-07-29T15:22:03;30.50;35.20
12060;DHT22;6091;51.432;6.880;2022-07-29T15:24:33;30.50;35.30
12060;DHT22;6091;51.432;6.880;2022-07-29T15:27:00;30.50;35.20
12060;DHT22;6091;51.432;6.880;2022-07-29T15:29:27;30.50;35.30
12060;DHT22;6091;51.432;6.880;2022-07-29T15:31:54;30.50;35.30
12060;DHT22;6091;51.432;6.880;2022-07-29T15:34:22;30.50;35.30
12060;DHT22;6091;51.432;6.880;2022-07-29T15:36:52;30.60;35.40
12060;DHT22;6091;51.432;6.880;2022-07-29T15:39:20;30.60;35.30
12060;DHT22;6091;51.432;6.880;2022-07-29T15:41:48;30.60;35.30
12060;DHT22;6091;51.432;6.880;2022-07-29T15:44:16;30.60;35.20
12060;DHT22;6091;51.432;6.880;2022-07-29T15:46:44;30.60;35.20
12060;DHT22;6091;51.432;6.880;2022-07-29T15:49:33;30.70;35.20
12060;DHT22;6091;51.432;6.880;2022-07-29T15:52:18;30.70;35.20
12060;DHT22;6091;51.432;6.880;2022-07-29T15:54:53;30.70;35.20
12060;DHT22;6091;51.432;6.880;2022-07-29T15:57:21;30.70;35.20
12060;DHT22;6091;51.432;6.880;2022-07-29T15:59:49;30.70;35.20
12060;DHT22;6091;51.432;6.880;2022-07-29T16:02:17;30.80;35.20
12060;DHT22;6091;51.432;6.880;2022-07-29T16:04:44;30.70;35.10
12060;DHT22;6091;51.432;6.880;2022-07-29T16:07:11;30.80;35.10
12060;DHT22;6091;51.432;6.880;2022-07-29T16:09:40;30.80;35.70
12060;DHT22;6091;51.432;6.880;2022-07-29T16:12:07;30.80;35.10
12060;DHT22;6091;51.432;6.880;2022-07-29T16:14:42;30.80;35.60
12060;DHT22;6091;51.432;6.880;2022-07-29T16:17:10;30.80;35.00
12060;DHT22;6091;51.432;6.880;2022-07-29T16:19:44;30.80;35.00
12060;DHT22;6091;51.432;6.880;2022-07-29T16:22:12;30.80;34.80
12060;DHT22;6091;51.432;6.880;2022-07-29T16:24:39;30.80;34.70
12060;DHT22;6091;51.432;6.880;2022-07-29T16:27:06;30.80;34.40
12060;DHT22;6091;51.432;6.880;2022-07-29T16:29:33;30.80;34.40
12060;DHT22;6091;51.432;6.880;2022-07-29T16:32:03;30.70;34.30
12060;DHT22;6091;51.432;6.880;2022-07-29T16:34:31;30.70;34.30
12060;DHT22;6091;51.432;6.880;2022-07-29T16:36:58;30.60;34.30
12060;DHT22;6091;51.432;6.880;2022-07-29T16:39:25;30.60;34.30
12060;DHT22;6091;51.432;6.880;2022-07-29T16:41:52;30.50;34.40
12060;DHT22;6091;51.432;6.880;2022-07-29T16:44:25;30.50;34.40
12060;DHT22;6091;51.432;6.880;2022-07-29T16:46:52;30.50;34.40
12060;DHT22;6091;51.432;6.880;2022-07-29T16:49:22;30.40;34.20
12060;DHT22;6091;51.432;6.880;2022-07-29T16:51:49;30.40;34.30
12060;DHT22;6091;51.432;6.880;2022-07-29T16:54:17;30.40;34.30
12060;DHT22;6091;51.432;6.880;2022-07-29T16:56:44;30.40;34.30
12060;DHT22;6091;51.432;6.880;2022-07-29T16:59:11;30.30;34.20
12060;DHT22;6091;51.432;6.880;2022-07-29T17:01:38;30.30;34.20
12060;DHT22;6091;51.432;6.880;2022-07-29T17:04:04;30.30;34.30